Time;durP1;ratioP1;P1;durP2;ratioP2;P2;SDS_P1;SDS_P2;PMS_P1;PMS_P2;Temp;Humidity;BMP_temperature;BMP_pressure;BME280_temperature;BME280_humidity;BME280_pressure;Samples;Min_cycle;Max_cycle;Signal;HPM_P1;HPM_P2
2022/02/06 00:00:53;;;;;;;4.50;1.70;;;;;;;5.53;68.75;97599.75;4943147;28;20213;-87
2022/02/06 00:03:19;;;;;;;5.43;1.50;;;;;;;5.46;68.69;97597.16;4931332;28;20802;-86
2022/02/06 00:05:47;;;;;;;3.45;1.10;;;;;;;5.62;68.21;97595.94;4946843;28;20174;-85
2022/02/06 00:08:12;;;;;;;7.95;1.30;;;;;;;5.46;68.61;97604.13;4932453;28;20170;-85
2022/02/06 00:10:38;;;;;;;6.32;1.70;;;;;;;5.48;67.58;97595.19;4950083;28;20254;-87
2022/02/06 00:13:04;;;;;;;4.35;1.10;;;;;;;5.58;68.65;97602.53;4938308;28;20189;-86
2022/02/06 00:15:29;;;;;;;5.47;1.52;;;;;;;5.40;68.78;97588.44;4947029;28;20189;-86
2022/02/06 00:17:55;;;;;;;7.57;1.75;;;;;;;5.43;68.69;97579.50;4931151;28;20252;-85
2022/02/06 00:20:21;;;;;;;4.85;1.63;;;;;;;5.32;69.20;97577.53;4951583;28;20350;-89
2022/02/06 00:22:54;;;;;;;4.18;1.50;;;;;;;5.54;68.38;97575.50;4936517;28;20156;-88
2022/02/06 00:25:49;;;;;;;;;;;;;;;;;;;;;
2022/02/06 00:43:19;;;;;;;4.18;1.15;;;;;;;5.74;68.00;97573.69;4964208;28;20247;-83
2022/02/06 00:45:45;;;;;;;5.97;1.38;;;;;;;5.71;68.44;97578.47;4954752;28;20243;-84
2022/02/06 00:48:11;;;;;;;4.88;1.63;;;;;;;5.54;68.76;97586.63;4941549;28;20300;-87
2022/02/06 00:50:41;;;;;;;4.68;1.40;;;;;;;5.64;68.80;97581.06;4935938;28;20238;-87
2022/02/06 00:53:13;;;;;;;4.25;0.85;;;;;;;5.96;67.87;97576.81;4927809;28;20273;-84
2022/02/06 00:55:39;;;;;;;4.60;1.65;;;;;;;5.82;67.85;97573.44;4931161;28;20603;-86
2022/02/06 00:58:04;;;;;;;4.53;1.30;;;;;;;5.70;67.89;97574.28;4948476;28;20314;-88
2022/02/06 01:00:29;;;;;;;4.50;1.20;;;;;;;5.69;68.46;97572.69;4936453;28;20102;-86
2022/02/06 01:02:55;;;;;;;3.90;1.27;;;;;;;5.62;68.92;97559.78;4928701;28;20298;-85
2022/02/06 01:05:20;;;;;;;7.07;1.08;;;;;;;5.89;67.82;97572.63;4918833;28;20252;-84
2022/02/06 01:07:47;;;;;;;5.72;1.00;;;;;;;5.59;68.23;97563.56;4951502;28;20177;-85
2022/02/06 01:10:14;;;;;;;4.75;1.00;;;;;;;6.04;67.47;97562.88;4932767;28;20755;-85
2022/02/06 01:12:43;;;;;;;7.75;1.40;;;;;;;5.91;67.65;97561.13;4959767;28;20647;-88
2022/02/06 01:18:14;;;;;;;5.55;1.98;;;;;;;5.83;67.89;97535.50;4968172;28;20507;-85
2022/02/06 01:20:33;;;;;;;3.42;1.10;;;;;;;6.03;66.93;97543.19;4965525;28;20200;-86
2022/02/06 01:23:04;;;;;;;4.45;1.20;;;;;;;5.92;67.60;97536.84;4967831;28;20824;-86
2022/02/06 01:25:36;;;;;;;4.00;0.95;;;;;;;5.98;67.44;97519.72;4943884;28;20296;-87
2022/02/06 01:28:07;;;;;;;2.70;0.80;;;;;;;5.82;67.71;97529.50;4934822;28;20713;-89
2022/02/06 01:30:52;;;;;;;4.20;1.33;;;;;;;5.87;67.62;97520.38;4935917;28;20212;-87
2022/02/06 01:33:25;;;;;;;4.15;1.38;;;;;;;5.92;67.56;97525.72;4952394;28;20165;-85
2022/02/06 01:36:04;;;;;;;4.60;1.20;;;;;;;5.90;67.39;97514.78;4953112;28;20200;-83
2022/02/06 01:41:21;;;;;;;5.55;1.73;;;;;;;6.08;67.11;97516.72;4936379;28;20658;-85
2022/02/06 01:43:55;;;;;;;5.22;1.30;;;;;;;5.94;67.59;97510.78;4935490;28;20246;-85
2022/02/06 02:32:22;;;;;;;6.43;1.73;;;;;;;5.73;68.46;97432.56;4940260;28;20361;-86
2022/02/06 02:48:09;;;;;;;7.30;1.77;;;;;;;6.24;67.20;97399.06;4952521;28;20295;-88
2022/02/06 02:50:38;;;;;;;5.45;1.52;;;;;;;6.29;67.15;97389.72;4936181;28;20105;-87
2022/02/06 02:53:27;;;;;;;4.53;0.90;;;;;;;6.46;66.68;97382.22;4929731;28;20534;-86
2022/02/06 02:58:53;;;;;;;4.20;1.27;;;;;;;6.36;67.34;97384.47;4968597;28;20719;-87
2022/02/06 03:01:28;;;;;;;3.33;0.88;;;;;;;6.52;66.77;97375.38;4950108;28;20251;-84
2022/02/06 03:03:54;;;;;;;2.50;1.10;;;;;;;6.40;66.79;97372.69;4920829;28;20212;-86
2022/02/06 03:06:20;;;;;;;8.35;2.05;;;;;;;6.33;67.42;97377.94;4935071;28;20160;-85
2022/02/06 03:08:47;;;;;;;2.95;1.33;;;;;;;6.24;67.45;97358.53;4952171;28;20185;-87
2022/02/06 03:11:15;;;;;;;4.63;1.50;;;;;;;6.17;67.51;97368.91;4935704;28;20196;-85
2022/02/06 03:14:08;;;;;;;8.82;2.15;;;;;;;6.37;67.23;97362.78;4951826;28;20282;-86
2022/02/06 03:16:37;;;;;;;2.63;1.00;;;;;;;6.54;66.57;97356.03;4952680;28;20211;-86
2022/02/06 03:19:16;;;;;;;4.55;1.42;;;;;;;6.40;66.53;97341.66;4966761;28;20318;-87
2022/02/06 03:21:42;;;;;;;6.57;2.00;;;;;;;6.47;66.69;97350.16;4951625;28;20173;-85
2022/02/06 03:26:45;;;;;;;1.73;0.98;;;;;;;6.22;67.92;97336.44;4947193;28;20106;-88
2022/02/06 03:29:10;;;;;;;7.00;1.40;;;;;;;6.12;68.47;97339.53;4915249;28;20249;-86
2022/02/06 03:31:39;;;;;;;5.78;1.10;;;;;;;6.15;67.99;97345.06;4950107;28;20302;-88
2022/02/06 03:34:05;;;;;;;4.28;2.10;;;;;;;6.25;67.60;97338.63;4935464;28;20373;-85
2022/02/06 03:36:30;;;;;;;5.00;1.33;;;;;;;6.26;67.67;97333.25;4948187;28;20584;-86
2022/02/06 03:38:56;;;;;;;5.60;1.33;;;;;;;6.32;67.33;97336.75;4934361;28;20249;-86
2022/02/06 03:41:24;;;;;;;8.07;1.58;;;;;;;6.21;67.65;97333.09;4951562;28;20678;-86
2022/02/06 03:51:38;;;;;;;7.90;2.03;;;;;;;6.42;66.88;97320.75;4941287;28;20357;-88
2022/02/06 03:54:05;;;;;;;6.20;1.40;;;;;;;6.42;67.18;97321.53;4937414;28;20168;-87
2022/02/06 03:56:32;;;;;;;4.30;1.42;;;;;;;6.37;67.01;97318.81;4922577;28;20592;-83
2022/02/06 03:58:59;;;;;;;3.13;1.10;;;;;;;5.99;68.19;97309.41;4932572;28;20706;-86
2022/02/06 04:01:24;;;;;;;3.65;1.00;;;;;;;6.30;67.18;97300.00;4951575;28;20158;-87
2022/02/06 04:03:50;;;;;;;4.97;1.50;;;;;;;6.27;67.30;97300.41;4935217;28;20251;-86
2022/02/06 04:06:15;;;;;;;5.50;2.03;;;;;;;6.24;67.54;97303.41;4927346;28;20279;-85
2022/02/06 04:08:42;;;;;;;4.22;1.42;;;;;;;6.27;67.68;97306.38;4935203;28;20231;-85
2022/02/06 04:11:13;;;;;;;8.73;2.17;;;;;;;6.28;67.24;97300.19;4947677;28;20295;-88
2022/02/06 04:13:53;;;;;;;4.25;1.42;;;;;;;6.36;67.46;97288.81;4940520;28;20305;-85
2022/02/06 04:16:25;;;;;;;5.97;1.10;;;;;;;6.45;67.17;97291.91;4952168;28;20282;-87
2022/02/06 04:19:00;;;;;;;6.53;1.27;;;;;;;6.18;67.79;97269.66;4934116;28;20199;-88
2022/02/06 04:21:26;;;;;;;3.22;1.38;;;;;;;6.35;67.20;97264.72;4946851;28;20312;-88
2022/02/06 04:23:51;;;;;;;6.07;1.50;;;;;;;6.21;67.36;97278.78;4934280;28;20287;-86
2022/02/06 04:26:16;;;;;;;4.95;1.27;;;;;;;6.25;67.31;97271.41;4951218;28;20282;-88
2022/02/06 04:28:42;;;;;;;5.30;1.33;;;;;;;6.35;66.98;97276.88;4966966;28;20204;-87
2022/02/06 04:31:07;;;;;;;4.82;1.05;;;;;;;6.31;67.39;97279.09;4950934;28;20600;-87
2022/02/06 04:33:32;;;;;;;7.28;2.05;;;;;;;5.96;67.37;97260.72;4934782;28;20203;-85
2022/02/06 04:36:00;;;;;;;3.40;1.30;;;;;;;6.23;67.11;97266.44;4951249;28;20212;-85
2022/02/06 04:41:30;;;;;;;3.60;1.37;;;;;;;6.21;67.52;97275.41;4950755;28;20258;-86
2022/02/06 04:49:43;;;;;;;7.20;1.40;;;;;;;6.47;66.73;97277.72;4952374;28;20183;-87
2022/02/06 05:31:56;;;;;;;8.00;1.38;;;;;;;6.13;67.88;97211.84;4950275;28;20290;-87
2022/02/06 05:34:21;;;;;;;5.45;1.80;;;;;;;6.18;67.23;97199.84;4935944;28;20200;-86
2022/02/06 05:36:48;;;;;;;3.92;1.15;;;;;;;6.24;67.01;97202.56;4947175;28;20652;-88
2022/02/06 05:39:13;;;;;;;5.38;1.02;;;;;;;6.41;66.67;97203.59;4933017;28;20222;-87
2022/02/06 05:41:38;;;;;;;5.35;1.00;;;;;;;6.22;67.33;97200.22;4933411;28;20212;-88
2022/02/06 05:44:05;;;;;;;6.68;1.30;;;;;;;5.90;68.44;97191.78;4934696;28;20274;-89
2022/02/06 05:46:30;;;;;;;6.13;1.00;;;;;;;5.93;68.22;97192.13;4935525;28;20200;-87
2022/02/06 05:48:55;;;;;;;7.75;1.25;;;;;;;6.04;68.15;97195.81;4939593;28;20295;-86
2022/02/06 05:51:21;;;;;;;5.50;0.98;;;;;;;6.01;68.00;97188.50;4953479;28;20094;-88
2022/02/06 05:53:46;;;;;;;2.45;0.98;;;;;;;6.30;67.88;97184.41;4936574;28;20196;-87
2022/02/06 05:56:16;;;;;;;6.32;1.27;;;;;;;6.35;66.98;97170.84;4937663;28;20599;-89
2022/02/06 05:58:42;;;;;;;4.78;1.38;;;;;;;6.26;67.45;97178.09;4937166;28;20707;-88
2022/02/06 06:01:07;;;;;;;7.57;1.50;;;;;;;6.05;68.35;97169.00;4934338;28;20687;-88
2022/02/06 06:03:32;;;;;;;4.45;1.20;;;;;;;6.17;67.76;97177.59;4918576;28;20159;-87
2022/02/06 06:05:58;;;;;;;4.03;1.35;;;;;;;6.14;68.04;97161.75;4934372;28;20138;-87
2022/02/06 06:08:23;;;;;;;3.95;1.65;;;;;;;6.06;68.45;97155.03;4952439;28;20227;-88
2022/02/06 06:10:48;;;;;;;4.40;1.10;;;;;;;5.99;68.51;97154.34;4936516;28;20200;-85
2022/02/06 06:13:14;;;;;;;7.53;1.35;;;;;;;5.92;68.99;97144.03;4936726;28;20227;-87
2022/02/06 06:15:39;;;;;;;5.80;1.08;;;;;;;6.27;67.97;97150.44;4937900;28;20246;-87
2022/02/06 06:18:06;;;;;;;6.03;1.33;;;;;;;6.24;68.34;97153.44;4936531;28;20272;-88
2022/02/06 06:20:35;;;;;;;4.25;1.10;;;;;;;6.28;68.31;97146.88;4945217;28;20327;-87
2022/02/06 06:23:00;;;;;;;3.47;1.02;;;;;;;5.98;68.75;97158.72;4935536;28;20216;-85
2022/02/06 06:25:33;;;;;;;3.15;0.95;;;;;;;6.21;68.26;97146.16;4959699;28;20657;-88
2022/02/06 06:27:58;;;;;;;5.22;1.52;;;;;;;6.25;68.08;97136.94;4937118;28;20568;-86
2022/02/06 06:30:24;;;;;;;6.63;1.40;;;;;;;6.21;68.38;97131.44;4949347;28;20201;-85
2022/02/06 06:32:49;;;;;;;7.38;1.95;;;;;;;6.14;68.14;97136.66;4914287;28;20522;-87
2022/02/06 06:35:16;;;;;;;5.97;1.35;;;;;;;6.13;68.37;97127.31;4935706;28;20335;-87
2022/02/06 06:37:42;;;;;;;3.97;1.77;;;;;;;6.37;67.69;97130.03;4951210;28;20289;-85
2022/02/06 06:40:08;;;;;;;3.92;1.90;;;;;;;5.84;68.94;97104.78;4952439;28;20345;-87
2022/02/06 06:42:33;;;;;;;5.47;1.52;;;;;;;6.00;68.33;97117.94;4937054;28;20811;-86
2022/02/06 06:44:59;;;;;;;5.40;1.52;;;;;;;6.51;66.49;97113.34;4937251;28;20298;-88
2022/02/06 06:47:24;;;;;;;5.03;1.45;;;;;;;6.35;67.00;97096.63;4941257;28;20345;-87
2022/02/06 06:49:49;;;;;;;4.85;0.90;;;;;;;6.16;67.52;97119.13;4949229;28;20587;-85
2022/02/06 06:52:15;;;;;;;6.10;1.67;;;;;;;6.24;67.78;97106.91;4953245;28;20245;-87
2022/02/06 06:54:45;;;;;;;1.70;0.93;;;;;;;6.18;67.71;97095.66;4927860;28;20242;-85
2022/02/06 07:02:17;;;;;;;3.25;1.23;;;;;;;5.98;68.58;97095.88;4934667;28;20094;-90
2022/02/06 07:04:43;;;;;;;4.07;1.27;;;;;;;6.28;67.60;97100.31;4952102;28;20596;-86
2022/02/06 07:07:09;;;;;;;3.50;1.13;;;;;;;6.32;67.31;97091.09;4968976;28;20298;-85
2022/02/06 07:09:34;;;;;;;3.72;1.88;;;;;;;6.56;66.90;97085.03;4952357;28;20686;-84
2022/02/06 07:11:59;;;;;;;5.15;1.08;;;;;;;6.55;66.71;97096.38;4968747;28;20187;-86
2022/02/06 07:14:26;;;;;;;2.88;0.70;;;;;;;6.38;67.53;97090.25;4937395;28;20188;-88
2022/02/06 07:16:51;;;;;;;4.75;1.27;;;;;;;6.35;67.49;97085.50;4917174;28;20217;-88
2022/02/06 07:19:17;;;;;;;5.72;1.85;;;;;;;6.23;68.10;97072.53;4928505;28;20198;-86
2022/02/06 07:21:42;;;;;;;3.55;1.05;;;;;;;6.41;66.91;97069.13;4936399;28;20283;-86
2022/02/06 07:24:08;;;;;;;4.35;1.00;;;;;;;6.23;67.42;97061.41;4952726;28;20362;-85
2022/02/06 07:26:33;;;;;;;5.10;1.75;;;;;;;6.36;67.57;97069.00;4948705;28;20599;-87
2022/02/06 07:29:00;;;;;;;6.68;2.13;;;;;;;6.39;67.32;97068.53;4949849;28;20250;-86
2022/02/06 07:31:26;;;;;;;4.93;1.50;;;;;;;6.52;66.94;97060.59;4919076;28;20212;-90
2022/02/06 07:33:52;;;;;;;6.07;1.45;;;;;;;6.43;68.03;97077.44;4932309;28;20076;-87
2022/02/06 07:36:18;;;;;;;4.05;1.55;;;;;;;6.57;67.43;97065.13;4916036;28;20160;-85
2022/02/06 07:38:44;;;;;;;5.30;0.80;;;;;;;6.27;68.14;97060.75;4949065;28;20323;-88
2022/02/06 07:41:10;;;;;;;3.83;0.70;;;;;;;6.44;67.75;97060.91;4951523;28;20238;-89
2022/02/06 07:43:36;;;;;;;5.07;0.70;;;;;;;6.29;67.28;97043.22;4967866;28;20227;-87
2022/02/06 07:46:07;;;;;;;5.38;0.82;;;;;;;6.64;67.24;97057.25;4953014;28;20262;-85
2022/02/06 07:48:32;;;;;;;4.40;1.25;;;;;;;6.59;66.98;97044.19;4934425;28;20654;-86
2022/02/06 07:50:58;;;;;;;2.95;1.05;;;;;;;6.30;67.81;97062.09;4944918;28;20263;-86
2022/02/06 07:53:24;;;;;;;5.50;1.33;;;;;;;6.40;67.61;97049.44;4951496;28;20725;-85
2022/02/06 07:55:49;;;;;;;5.90;1.73;;;;;;;6.19;68.32;97054.09;4934118;28;20243;-86
2022/02/06 07:58:14;;;;;;;5.68;1.10;;;;;;;6.71;67.43;97063.91;4930494;28;20188;-86
2022/02/06 08:00:40;;;;;;;5.55;1.38;;;;;;;6.55;68.13;97039.47;4933156;28;20303;-86
2022/02/06 08:03:06;;;;;;;3.72;0.95;;;;;;;6.76;67.63;97019.25;4951396;28;20208;-86
2022/02/06 08:05:31;;;;;;;6.03;1.20;;;;;;;6.60;68.48;97028.47;4934884;28;20215;-88
2022/02/06 08:07:58;;;;;;;3.47;1.00;;;;;;;6.34;69.02;97009.75;4952011;28;20161;-87
2022/02/06 08:10:25;;;;;;;5.05;0.90;;;;;;;6.19;70.05;97020.47;4967477;28;20105;-82
2022/02/06 08:12:56;;;;;;;7.88;1.60;;;;;;;6.30;69.93;97023.31;4951579;28;20169;-85
2022/02/06 08:15:22;;;;;;;6.20;1.58;;;;;;;6.35;69.71;97026.03;4953353;28;20587;-86
2022/02/06 08:17:48;;;;;;;3.85;1.00;;;;;;;6.60;69.14;97014.72;4935580;28;20269;-88
2022/02/06 08:20:15;;;;;;;10.57;1.30;;;;;;;6.24;69.54;96993.16;4935329;28;20722;-86
2022/02/06 08:22:41;;;;;;;5.55;1.10;;;;;;;6.28;69.65;97007.25;4945089;28;20585;-86
2022/02/06 08:25:08;;;;;;;3.72;1.00;;;;;;;6.32;69.28;96998.03;4934868;28;20254;-87
2022/02/06 08:27:34;;;;;;;4.60;1.23;;;;;;;6.12;70.12;96978.41;4928826;28;20212;-87
2022/02/06 08:30:00;;;;;;;5.03;1.15;;;;;;;6.39;69.40;97009.06;4947169;28;20605;-84
2022/02/06 08:32:29;;;;;;;4.65;1.10;;;;;;;6.34;69.60;97007.16;4946916;28;20193;-85
2022/02/06 08:34:55;;;;;;;5.57;1.75;;;;;;;6.21;70.43;96991.03;4949500;28;20530;-85
2022/02/06 08:37:22;;;;;;;4.75;1.77;;;;;;;6.43;69.54;96992.09;4934955;28;20720;-86
2022/02/06 08:39:48;;;;;;;6.00;1.40;;;;;;;6.53;68.76;96976.81;4930806;28;20643;-87
2022/02/06 08:42:14;;;;;;;3.75;0.93;;;;;;;6.69;68.76;96987.53;4934543;28;20227;-86
2022/02/06 08:44:41;;;;;;;5.78;0.90;;;;;;;6.63;68.63;96986.63;4951802;28;20320;-86
2022/02/06 08:47:09;;;;;;;1.48;1.00;;;;;;;6.25;70.23;96974.06;4927838;28;20412;-86
2022/02/06 08:49:36;;;;;;;5.60;1.55;;;;;;;6.34;70.68;96975.31;4921988;28;20154;-86
2022/02/06 08:52:02;;;;;;;2.85;1.27;;;;;;;6.20;71.04;96974.72;4932389;28;20354;-86
2022/02/06 08:54:33;;;;;;;7.43;2.10;;;;;;;6.19;71.44;96958.44;4920959;28;20400;-85
2022/02/06 08:57:02;;;;;;;3.40;1.42;;;;;;;6.30;70.80;96954.28;4962175;28;20196;-86
2022/02/06 08:59:30;;;;;;;7.22;1.55;;;;;;;6.08;71.80;96954.00;4915115;28;20690;-87
2022/02/06 09:01:58;;;;;;;2.67;1.10;;;;;;;5.97;72.43;96942.63;4930921;28;20185;-87
2022/02/06 09:04:23;;;;;;;4.25;2.05;;;;;;;6.17;71.97;96944.16;4937623;28;21026;-88
2022/02/06 09:06:48;;;;;;;3.80;1.38;;;;;;;6.09;72.45;96936.72;4949103;28;20368;-89
2022/02/06 09:09:15;;;;;;;4.53;1.83;;;;;;;6.17;72.31;96929.44;4960749;28;20357;-90
2022/02/06 09:11:40;;;;;;;3.63;1.63;;;;;;;6.11;71.96;96925.13;4962060;28;20276;-89
2022/02/06 09:14:05;;;;;;;3.78;1.40;;;;;;;6.12;72.45;96910.44;4948231;28;20215;-89
2022/02/06 09:16:31;;;;;;;3.50;0.90;;;;;;;6.37;71.49;96892.13;4933578;28;20098;-85
2022/02/06 09:18:56;;;;;;;4.07;1.92;;;;;;;6.40;71.18;96883.94;4931009;28;20607;-85
2022/02/06 09:21:23;;;;;;;2.65;1.17;;;;;;;6.53;71.18;96882.94;4932446;28;20712;-86
2022/02/06 09:23:48;;;;;;;4.07;1.50;;;;;;;6.39;71.64;96890.09;4932190;28;20492;-86
2022/02/06 09:26:14;;;;;;;3.55;1.50;;;;;;;6.41;71.85;96892.47;4946850;28;20304;-88
2022/02/06 09:28:40;;;;;;;4.13;1.63;;;;;;;6.45;71.68;96876.28;4933306;28;20162;-88
2022/02/06 09:31:05;;;;;;;2.30;1.25;;;;;;;6.00;73.75;96854.34;4912085;28;20320;-89
2022/02/06 09:35:56;;;;;;;5.65;2.17;;;;;;;6.31;72.00;96852.44;4965820;28;20196;-86
2022/02/06 09:38:21;;;;;;;4.78;2.08;;;;;;;6.14;72.86;96849.75;4966247;28;20303;-87
2022/02/06 09:40:48;;;;;;;7.50;2.92;;;;;;;6.36;72.26;96849.19;4930585;28;20180;-86
2022/02/06 09:43:14;;;;;;;3.83;1.85;;;;;;;6.37;72.36;96848.16;4953756;28;20662;-85
2022/02/06 09:45:46;;;;;;;5.07;1.70;;;;;;;6.19;73.08;96839.50;4951931;28;20204;-87
2022/02/06 09:48:13;;;;;;;3.60;1.13;;;;;;;6.24;72.33;96819.94;4948606;28;20705;-87
2022/02/06 09:50:38;;;;;;;4.15;1.27;;;;;;;6.46;71.84;96836.50;4917265;28;20204;-87
2022/02/06 09:53:04;;;;;;;3.63;1.13;;;;;;;6.72;71.55;96826.69;4949556;28;20271;-86
2022/02/06 09:55:30;;;;;;;3.95;1.15;;;;;;;6.47;71.88;96786.31;4930646;28;20722;-84
2022/02/06 10:00:45;;;;;;;7.57;1.70;;;;;;;6.75;70.94;96813.25;4926965;28;20240;-85
2022/02/06 10:03:12;;;;;;;3.53;1.20;;;;;;;6.65;71.75;96820.81;4933032;28;20273;-87
2022/02/06 10:05:39;;;;;;;4.03;1.10;;;;;;;6.73;71.12;96821.28;4949245;28;20098;-87
2022/02/06 10:08:31;;;;;;;3.00;1.13;;;;;;;6.64;72.26;96814.88;4934349;28;20224;-87
2022/02/06 10:11:23;;;;;;;3.92;1.45;;;;;;;6.57;72.61;96814.22;4931206;28;20149;-86
2022/02/06 10:13:48;;;;;;;4.40;1.45;;;;;;;6.52;72.81;96801.94;4945603;28;20199;-88
2022/02/06 10:16:16;;;;;;;5.03;1.75;;;;;;;6.50;72.90;96798.03;4929952;28;20302;-86
2022/02/06 10:18:44;;;;;;;5.80;1.98;;;;;;;6.78;71.67;96824.97;4935479;28;20170;-85
2022/02/06 10:21:14;;;;;;;5.55;2.58;;;;;;;6.49;72.07;96797.22;4948142;28;20169;-84
2022/02/06 10:23:55;;;;;;;4.60;1.10;;;;;;;6.49;72.15;96794.63;4940331;28;20685;-86
2022/02/06 10:26:30;;;;;;;2.60;1.00;;;;;;;6.60;71.83;96802.59;4940264;28;20217;-87
2022/02/06 10:31:52;;;;;;;4.57;1.63;;;;;;;6.53;72.33;96787.22;4933613;28;20619;-87
2022/02/06 10:34:22;;;;;;;2.70;1.00;;;;;;;6.32;72.93;96793.75;4934100;28;20162;-88
2022/02/06 10:36:47;;;;;;;6.78;1.25;;;;;;;6.68;72.21;96790.13;4936986;28;20338;-86
2022/02/06 10:39:16;;;;;;;3.13;1.63;;;;;;;6.85;71.41;96789.41;4953270;28;20654;-87
2022/02/06 10:41:46;;;;;;;3.15;1.02;;;;;;;6.84;71.28;96772.31;4935636;28;20188;-87
2022/02/06 10:44:12;;;;;;;1.95;1.17;;;;;;;6.93;71.78;96766.53;4948614;28;20192;-85
2022/02/06 10:46:55;;;;;;;5.20;1.30;;;;;;;6.64;72.53;96762.34;4954665;28;20627;-86
2022/02/06 10:49:21;;;;;;;4.93;1.50;;;;;;;6.59;72.84;96757.06;4924170;28;20706;-86
2022/02/06 10:52:01;;;;;;;3.42;1.17;;;;;;;6.50;72.68;96738.53;4919562;28;20621;-86
2022/02/06 10:54:27;;;;;;;2.80;1.30;;;;;;;7.00;71.71;96750.09;4944207;28;20647;-87
2022/02/06 10:57:13;;;;;;;1.95;0.90;;;;;;;6.52;73.06;96752.81;4938273;28;20331;-87
2022/02/06 10:59:42;;;;;;;2.03;1.02;;;;;;;6.74;72.18;96732.28;4944740;28;20169;-86
2022/02/06 11:02:08;;;;;;;2.97;1.00;;;;;;;6.66;73.05;96718.94;4963239;28;20662;-86
2022/02/06 11:04:35;;;;;;;3.63;0.90;;;;;;;6.68;73.09;96719.47;4938079;28;20281;-86
2022/02/06 11:07:18;;;;;;;7.68;1.17;;;;;;;6.60;73.96;96718.06;4938493;28;20594;-87
2022/02/06 11:09:44;;;;;;;2.38;1.08;;;;;;;6.69;72.81;96702.94;4942846;28;20696;-86
2022/02/06 11:12:12;;;;;;;1.27;0.80;;;;;;;6.74;72.30;96685.72;4931654;28;20278;-87
2022/02/06 11:14:45;;;;;;;2.78;0.70;;;;;;;6.47;73.70;96688.06;4950972;28;20271;-89
2022/02/06 11:17:22;;;;;;;3.58;1.13;;;;;;;6.37;74.24;96675.72;4936285;28;20647;-86
2022/02/06 11:20:04;;;;;;;1.73;0.90;;;;;;;6.07;74.80;96669.97;4923020;28;20604;-88
2022/02/06 11:22:30;;;;;;;2.85;0.93;;;;;;;6.50;74.47;96661.72;4970018;28;20594;-87
2022/02/06 11:24:56;;;;;;;3.92;1.63;;;;;;;6.40;74.42;96666.72;4945709;28;20158;-83
2022/02/06 11:27:22;;;;;;;1.70;0.90;;;;;;;6.65;73.75;96656.06;4935342;28;20271;-84
2022/02/06 11:29:47;;;;;;;4.32;1.00;;;;;;;6.64;73.90;96633.00;4935342;28;20076;-86
2022/02/06 11:32:14;;;;;;;1.73;1.05;;;;;;;6.45;74.24;96628.03;4951604;28;20263;-87
2022/02/06 11:34:44;;;;;;;2.05;1.00;;;;;;;6.31;75.35;96637.84;4951656;28;20286;-85
2022/02/06 11:45:59;;;;;;;2.22;0.85;;;;;;;6.44;74.72;96613.50;4966594;28;20647;-87
2022/02/06 11:48:29;;;;;;;1.92;0.70;;;;;;;6.12;75.87;96613.19;4964065;28;20275;-86
2022/02/06 11:50:55;;;;;;;3.92;1.05;;;;;;;6.47;74.30;96597.53;4935806;28;20677;-85
2022/02/06 11:53:37;;;;;;;0.85;0.63;;;;;;;6.32;74.75;96623.13;4937137;28;20266;-87
2022/02/06 11:56:23;;;;;;;1.80;1.17;;;;;;;6.15;75.39;96600.59;4925645;28;20370;-85
2022/02/06 11:58:50;;;;;;;2.10;0.90;;;;;;;6.29;74.65;96584.78;4949379;28;20245;-85
2022/02/06 12:01:15;;;;;;;2.50;0.95;;;;;;;6.19;75.44;96583.59;4944345;28;20693;-84
2022/02/06 12:03:47;;;;;;;2.55;0.88;;;;;;;6.19;75.28;96596.53;4933686;28;20241;-84
2022/02/06 12:06:12;;;;;;;3.83;1.42;;;;;;;6.30;75.25;96573.44;4942758;28;20648;-83
2022/02/06 12:09:03;;;;;;;2.58;1.10;;;;;;;6.29;74.64;96570.09;4932454;28;20279;-85
2022/02/06 12:11:29;;;;;;;1.27;0.70;;;;;;;6.21;75.06;96562.69;4921700;28;20283;-85
2022/02/06 12:14:20;;;;;;;1.15;0.70;;;;;;;6.14;74.74;96531.81;4946221;28;20722;-84
2022/02/06 12:16:53;;;;;;;1.90;0.80;;;;;;;6.53;74.74;96538.94;4935379;28;20177;-84
2022/02/06 12:19:28;;;;;;;2.03;0.80;;;;;;;6.22;74.77;96540.22;4946657;28;20294;-84
2022/02/06 12:21:55;;;;;;;1.73;0.50;;;;;;;6.32;74.76;96540.38;4947599;28;20474;-85
2022/02/06 12:24:43;;;;;;;1.02;0.60;;;;;;;5.65;76.41;96523.63;4915353;28;20153;-84
2022/02/06 12:27:21;;;;;;;2.03;0.63;;;;;;;6.02;75.65;96528.50;4928593;28;20169;-81
2022/02/06 12:29:50;;;;;;;1.50;0.85;;;;;;;6.47;73.64;96517.38;4923575;28;20188;-83
2022/02/06 12:32:33;;;;;;;2.80;0.60;;;;;;;6.06;74.31;96519.25;4933344;28;20196;-81
2022/02/06 12:37:44;;;;;;;2.67;0.63;;;;;;;5.95;75.45;96497.59;4941522;28;20198;-79
2022/02/06 12:40:10;;;;;;;2.80;0.60;;;;;;;6.21;75.37;96508.41;4963938;28;20723;-81
2022/02/06 12:42:44;;;;;;;1.17;0.38;;;;;;;5.97;74.88;96503.34;4950221;28;20383;-81
2022/02/06 12:45:20;;;;;;;0.97;0.50;;;;;;;5.57;76.52;96487.81;4930660;28;20160;-81
2022/02/06 12:47:48;;;;;;;1.70;0.43;;;;;;;6.09;75.42;96497.34;4926010;28;20207;-82
2022/02/06 12:50:19;;;;;;;1.88;0.70;;;;;;;6.35;74.85;96477.88;4934212;28;20196;-81
2022/02/06 12:52:45;;;;;;;1.40;0.40;;;;;;;6.08;74.81;96473.28;4949355;28;20746;-81
2022/02/06 12:55:12;;;;;;;1.10;0.40;;;;;;;5.83;75.86;96458.13;4921491;28;20169;-80
2022/02/06 12:57:52;;;;;;;0.93;0.38;;;;;;;5.77;76.35;96464.97;4958100;28;20287;-80
2022/02/06 13:00:24;;;;;;;1.17;0.80;;;;;;;5.92;75.26;96450.78;4932362;28;20255;-79
2022/02/06 13:02:50;;;;;;;2.08;0.47;;;;;;;5.98;75.61;96439.50;4965185;28;20735;-81
2022/02/06 13:05:15;;;;;;;1.38;0.40;;;;;;;5.84;76.58;96445.97;4944718;28;20178;-81
2022/02/06 13:07:45;;;;;;;0.93;0.50;;;;;;;5.75;76.35;96456.66;4944004;28;20232;-79
2022/02/06 13:10:11;;;;;;;1.65;0.50;;;;;;;5.76;77.05;96442.75;4947791;28;20318;-83
2022/02/06 13:12:50;;;;;;;0.57;0.30;;;;;;;5.55;76.66;96431.28;4947562;28;20192;-79
2022/02/06 13:18:15;;;;;;;1.45;0.30;;;;;;;5.87;75.88;96417.88;4966337;28;20220;-81
2022/02/06 13:21:01;;;;;;;0.82;0.63;;;;;;;5.28;76.86;96407.78;4932570;28;20736;-82
2022/02/06 13:23:47;;;;;;;0.55;0.32;;;;;;;5.67;76.22;96413.13;4964590;28;20610;-79
2022/02/06 13:26:30;;;;;;;0.75;0.32;;;;;;;5.70;76.23;96402.34;4931588;28;20279;-80
2022/02/06 13:29:09;;;;;;;1.15;0.65;;;;;;;5.71;75.75;96403.13;4947400;28;20212;-80
2022/02/06 13:31:56;;;;;;;1.15;0.25;;;;;;;5.60;76.76;96402.16;4948110;28;20358;-82
2022/02/06 13:34:42;;;;;;;1.50;0.20;;;;;;;6.00;75.62;96404.69;4944255;28;20165;-81
2022/02/06 13:37:31;;;;;;;1.90;0.40;;;;;;;5.87;76.04;96393.84;4947992;28;20211;-84
2022/02/06 13:40:10;;;;;;;1.10;0.30;;;;;;;5.76;75.70;96379.97;4936693;28;20360;-83
2022/02/06 13:42:38;;;;;;;1.85;0.30;;;;;;;5.86;75.95;96380.16;4946453;28;20552;-82
2022/02/06 13:45:13;;;;;;;0.88;0.30;;;;;;;5.47;76.81;96356.75;4963871;28;20200;-82
2022/02/06 13:47:42;;;;;;;0.85;0.40;;;;;;;5.41;77.41;96368.00;4961290;28;20239;-82
2022/02/06 13:50:11;;;;;;;0.35;0.30;;;;;;;5.46;77.26;96362.16;4962445;28;20141;-85
2022/02/06 13:52:43;;;;;;;0.88;0.30;;;;;;;5.33;77.25;96335.59;4949431;28;20173;-83
2022/02/06 13:55:10;;;;;;;1.25;0.30;;;;;;;5.59;76.18;96328.31;4930614;28;20346;-83
2022/02/06 13:57:36;;;;;;;0.90;0.50;;;;;;;5.61;76.87;96327.03;4947577;28;20330;-83
2022/02/06 14:00:09;;;;;;;1.88;0.40;;;;;;;5.37;77.16;96335.94;4931060;28;20223;-79
2022/02/06 14:02:35;;;;;;;1.85;0.43;;;;;;;5.46;76.89;96323.44;4944128;28;20675;-82
2022/02/06 14:05:05;;;;;;;0.68;0.32;;;;;;;5.49;76.73;96305.66;4947138;28;20196;-81
2022/02/06 14:07:31;;;;;;;0.90;0.50;;;;;;;5.47;76.93;96312.88;4947336;28;20193;-82
2022/02/06 14:10:13;;;;;;;0.90;0.30;;;;;;;5.57;76.57;96325.16;4929915;28;20282;-81
2022/02/06 14:12:48;;;;;;;1.30;0.30;;;;;;;5.63;75.87;96319.06;4935022;28;20165;-80
2022/02/06 14:15:34;;;;;;;2.00;0.30;;;;;;;5.38;76.86;96309.88;4937809;28;20184;-83
2022/02/06 14:18:06;;;;;;;;;;;;;;;5.32;77.61;96291.97;4918795;28;20196;-81
2022/02/06 14:20:32;;;;;;;0.35;0.20;;;;;;;5.55;76.85;96280.72;4934574;28;20514;-82
2022/02/06 14:23:02;;;;;;;0.32;0.30;;;;;;;5.48;77.53;96265.38;4957800;28;20166;-85
2022/02/06 14:25:29;;;;;;;0.80;0.30;;;;;;;5.40;77.59;96263.19;4935907;28;20270;-85
2022/02/06 14:27:56;;;;;;;0.40;0.28;;;;;;;5.22;77.90;96228.81;4933049;28;20248;-80
2022/02/06 14:30:30;;;;;;;0.60;0.30;;;;;;;5.62;77.15;96264.06;4948325;28;20633;-82
2022/02/06 14:33:05;;;;;;;0.60;0.30;;;;;;;5.38;77.93;96255.69;4959652;28;20274;-83
2022/02/06 14:35:48;;;;;;;1.88;0.50;;;;;;;5.60;76.63;96247.22;4950000;28;20196;-83
2022/02/06 14:38:22;;;;;;;0.82;0.17;;;;;;;5.32;77.50;96240.34;4949654;28;20162;-83
2022/02/06 14:41:07;;;;;;;1.73;0.30;;;;;;;5.56;76.97;96225.47;4934984;28;20640;-81
2022/02/06 14:43:38;;;;;;;1.27;0.32;;;;;;;5.54;77.19;96233.47;4947514;28;20247;-83